createdAt,value
2023-05-22T00:01:06.929Z,75.06
2023-05-22T00:05:59.168Z,74.85
2023-05-22T00:10:49.190Z,74.79
2023-05-22T00:15:41.698Z,74.92
2023-05-22T00:20:38.899Z,74.85
2023-05-22T00:25:29.385Z,74.66
2023-05-22T00:30:21.666Z,75.13
2023-05-22T00:35:15.459Z,74.42
2023-05-22T00:40:06.533Z,75.28
2023-05-22T00:44:56.530Z,74.79
2023-05-22T00:49:49.402Z,74.85
2023-05-22T00:54:42.841Z,75.23
2023-05-22T00:59:34.227Z,75.18
2023-05-22T01:04:24.214Z,75.28
2023-05-22T01:09:14.986Z,75.66
2023-05-22T01:14:17.185Z,75.64
2023-05-22T01:19:22.944Z,75.99
2023-05-22T01:24:42.073Z,75.89
2023-05-22T01:29:48.344Z,75.95
2023-05-22T01:34:43.557Z,76.06
2023-05-22T01:39:34.515Z,76.07
2023-05-22T01:44:28.184Z,76.10
2023-05-22T01:49:21.632Z,75.62
2023-05-22T01:54:22.884Z,76.08
2023-05-22T01:59:21.574Z,75.93
2023-05-22T02:04:13.286Z,76.44
2023-05-22T02:09:06.512Z,76.17
2023-05-22T02:13:59.690Z,76.27
2023-05-22T02:18:49.677Z,75.65
2023-05-22T02:23:39.645Z,75.56
2023-05-22T02:28:30.148Z,75.51
2023-05-22T02:33:24.820Z,75.96
2023-05-22T02:38:14.815Z,75.56
2023-05-22T02:43:04.822Z,75.86
2023-05-22T02:47:57.311Z,75.97
2023-05-22T02:52:50.743Z,75.68
2023-05-22T02:57:44.679Z,75.38
2023-05-22T03:02:36.840Z,75.97
2023-05-22T03:07:27.323Z,76.20
2023-05-22T03:12:20.186Z,76.23
2023-05-22T03:17:11.117Z,76.36
2023-05-22T03:22:01.009Z,76.47
2023-05-22T03:26:52.333Z,76.68
2023-05-22T03:32:06.398Z,76.35
2023-05-22T03:36:58.165Z,76.73
2023-05-22T03:41:48.392Z,76.69
2023-05-22T03:46:38.754Z,77.49
2023-05-22T03:51:31.856Z,77.36
2023-05-22T03:56:21.762Z,77.91
2023-05-22T04:01:13.963Z,77.78
2023-05-22T04:06:04.716Z,77.74
2023-05-22T04:10:57.329Z,78.09
2023-05-22T04:15:47.744Z,77.80
2023-05-22T04:20:40.825Z,78.20
2023-05-22T04:25:31.825Z,78.25
2023-05-22T04:30:25.968Z,78.86
2023-05-22T04:35:18.833Z,78.74
2023-05-22T04:40:11.461Z,78.69
2023-05-22T04:45:04.055Z,79.13
2023-05-22T04:50:00.314Z,79.09
2023-05-22T04:54:52.488Z,79.42
2023-05-22T04:59:42.727Z,79.57
2023-05-22T05:04:34.357Z,79.46
2023-05-22T05:09:27.668Z,79.64
2023-05-22T05:14:18.416Z,79.40
2023-05-22T05:19:08.826Z,79.33
2023-05-22T05:23:59.271Z,79.34
2023-05-22T05:28:52.704Z,79.40
2023-05-22T05:33:43.710Z,79.57
2023-05-22T05:38:38.634Z,79.31
2023-05-22T05:43:29.286Z,79.04
2023-05-22T05:48:27.859Z,79.15
2023-05-22T05:53:18.969Z,79.12
2023-05-22T05:58:15.646Z,79.37
2023-05-22T06:03:22.940Z,78.72
2023-05-22T06:08:23.846Z,79.06
2023-05-22T06:13:14.360Z,78.75
2023-05-22T06:18:05.716Z,78.06
2023-05-22T06:22:56.248Z,78.47
2023-05-22T06:27:49.378Z,77.71
2023-05-22T06:32:40.898Z,77.47
2023-05-22T06:37:33.182Z,77.52
2023-05-22T06:42:27.341Z,77.46
2023-05-22T06:47:40.475Z,76.62
2023-05-22T06:52:32.098Z,76.83
2023-05-22T06:57:25.325Z,76.97
2023-05-22T07:02:17.455Z,76.24
2023-05-22T07:07:26.082Z,76.72
2023-05-22T07:12:16.649Z,76.41
2023-05-22T07:17:08.576Z,76.07
2023-05-22T07:22:04.401Z,75.98
2023-05-22T07:26:59.537Z,75.70
2023-05-22T07:31:50.007Z,76.24
2023-05-22T07:36:41.226Z,75.61
2023-05-22T07:41:31.764Z,75.44
2023-05-22T07:46:25.089Z,75.36
2023-05-22T07:51:23.352Z,74.59
2023-05-22T07:56:17.216Z,74.88
2023-05-22T08:01:09.634Z,73.84
2023-05-22T08:06:02.610Z,74.12
2023-05-22T08:16:00.288Z,72.55
2023-05-22T08:20:54.305Z,72.85
2023-05-22T08:25:47.622Z,73.24
2023-05-22T08:30:38.102Z,72.19
2023-05-22T08:35:28.382Z,71.31
2023-05-22T08:40:19.867Z,70.73
2023-05-22T08:45:16.435Z,70.43
2023-05-22T08:50:07.452Z,69.50
2023-05-22T08:55:01.973Z,68.70
2023-05-22T08:59:53.310Z,67.03
2023-05-22T09:04:46.274Z,66.50
2023-05-22T09:09:39.824Z,66.01
2023-05-22T09:14:31.464Z,65.68
2023-05-22T09:19:23.243Z,63.96
2023-05-22T09:24:16.442Z,63.26
2023-05-22T09:29:07.690Z,61.46
2023-05-22T09:33:58.616Z,60.33
2023-05-22T09:38:48.482Z,59.00
2023-05-22T09:43:41.185Z,58.53
2023-05-22T09:48:30.978Z,57.81
2023-05-22T09:53:22.565Z,57.34
2023-05-22T09:58:16.769Z,57.53
2023-05-22T10:03:12.779Z,56.65
2023-05-22T10:08:08.162Z,54.71
2023-05-22T10:13:01.682Z,54.50
2023-05-22T10:17:53.136Z,54.63
2023-05-22T10:22:46.217Z,53.47
2023-05-22T10:27:36.328Z,55.98
2023-05-22T10:32:36.399Z,57.35
2023-05-22T10:37:50.325Z,58.13
2023-05-22T10:42:41.125Z,58.39
2023-05-22T10:47:30.988Z,58.25
2023-05-22T10:52:22.195Z,57.40
2023-05-22T10:57:20.831Z,57.80
2023-05-22T11:02:23.098Z,56.83
2023-05-22T11:07:15.250Z,57.85
2023-05-22T11:12:28.914Z,56.49
2023-05-22T11:17:21.996Z,58.30
2023-05-22T11:22:13.689Z,57.49
2023-05-22T11:27:05.242Z,57.70
2023-05-22T11:31:58.232Z,57.73
2023-05-22T11:36:47.929Z,56.20
2023-05-22T11:41:37.549Z,56.73
2023-05-22T11:46:27.158Z,57.31
2023-05-22T11:51:21.754Z,55.95
2023-05-22T11:56:11.564Z,55.24
2023-05-22T12:01:01.757Z,57.18
2023-05-22T12:05:53.311Z,55.90
2023-05-22T12:10:52.220Z,56.68
2023-05-22T12:15:41.759Z,56.30
2023-05-22T12:20:32.533Z,56.38
2023-05-22T12:25:25.064Z,56.60
2023-05-22T12:30:18.521Z,56.99
2023-05-22T12:35:08.529Z,55.92
2023-05-22T12:39:58.932Z,56.57
2023-05-22T12:44:48.911Z,56.94
2023-05-22T12:49:41.116Z,56.33
2023-05-22T12:54:30.915Z,58.29
2023-05-22T12:59:21.002Z,56.01
2023-05-22T13:04:10.674Z,56.35
2023-05-22T13:09:02.789Z,56.35
2023-05-22T13:13:52.319Z,56.79
2023-05-22T13:18:42.135Z,56.65
2023-05-22T13:23:31.648Z,56.22
2023-05-22T13:28:23.908Z,55.06
2023-05-22T13:33:13.788Z,55.47
2023-05-22T13:38:03.500Z,57.07
2023-05-22T13:42:54.614Z,55.74
2023-05-22T13:47:47.031Z,54.73
2023-05-22T13:52:36.709Z,55.82
2023-05-22T13:57:26.325Z,54.54
2023-05-22T14:02:16.005Z,55.01
2023-05-22T14:07:08.749Z,54.59
2023-05-22T14:11:58.400Z,55.22
2023-05-22T14:16:48.294Z,54.84
2023-05-22T14:21:37.941Z,54.31
2023-05-22T14:26:30.532Z,54.78
2023-05-22T14:31:20.346Z,55.04
2023-05-22T14:36:10.384Z,55.03
2023-05-22T14:41:00.301Z,55.29
2023-05-22T14:45:55.053Z,57.13
2023-05-22T14:50:45.062Z,57.27
2023-05-22T14:55:34.908Z,56.91
2023-05-22T15:00:24.849Z,57.35
2023-05-22T15:05:17.606Z,56.90
2023-05-22T15:10:08.506Z,57.17
2023-05-22T15:14:58.333Z,56.72
2023-05-22T15:19:49.161Z,57.06
2023-05-22T15:24:44.465Z,56.64
2023-05-22T15:29:34.309Z,57.09
2023-05-22T15:34:24.083Z,56.96
2023-05-22T15:39:13.996Z,56.75
2023-05-22T15:44:06.831Z,57.27
2023-05-22T15:48:57.442Z,57.05
2023-05-22T15:53:47.603Z,56.61
2023-05-22T15:58:37.525Z,56.46
2023-05-22T16:03:29.975Z,56.13
2023-05-22T16:08:20.108Z,55.70
2023-05-22T16:13:10.837Z,55.30
2023-05-22T16:18:01.351Z,54.63
2023-05-22T16:22:53.873Z,55.01
2023-05-22T16:27:43.864Z,55.30
2023-05-22T16:32:33.754Z,55.38
2023-05-22T16:37:24.030Z,55.08
2023-05-22T16:42:18.590Z,54.72
2023-05-22T16:47:08.851Z,54.41
2023-05-22T16:51:58.812Z,54.12
2023-05-22T16:56:48.939Z,53.61
2023-05-22T17:01:41.527Z,53.58
2023-05-22T17:06:32.027Z,53.70
2023-05-22T17:11:21.876Z,53.84
2023-05-22T17:16:12.049Z,54.40
2023-05-22T17:21:04.744Z,55.04
2023-05-22T17:25:55.386Z,54.89
2023-05-22T17:30:45.644Z,55.68
2023-05-22T17:35:35.199Z,55.66
2023-05-22T17:40:43.167Z,57.18
2023-05-22T17:45:34.181Z,57.28
2023-05-22T17:50:23.785Z,56.45
2023-05-22T17:55:13.374Z,56.85
2023-05-22T18:00:06.094Z,57.48
2023-05-22T18:05:01.226Z,58.13
2023-05-22T18:09:50.814Z,58.39
2023-05-22T18:14:40.497Z,58.75
2023-05-22T18:19:32.804Z,58.69
2023-05-22T18:24:25.447Z,59.29
2023-05-22T18:29:15.128Z,60.02
2023-05-22T18:34:04.742Z,60.46
2023-05-22T18:38:57.127Z,60.45
2023-05-22T18:43:46.694Z,60.68
2023-05-22T18:48:36.326Z,61.14
2023-05-22T18:53:27.164Z,62.03
2023-05-22T18:58:19.338Z,61.73
2023-05-22T19:03:11.569Z,62.15
2023-05-22T19:08:01.163Z,63.34
2023-05-22T19:12:50.711Z,63.67
2023-05-22T19:17:45.824Z,64.48
2023-05-22T19:22:35.613Z,64.25
2023-05-22T19:27:25.135Z,64.92
2023-05-22T19:32:14.750Z,64.66
2023-05-22T19:37:08.606Z,62.50
2023-05-22T19:41:58.643Z,62.99
2023-05-22T19:46:48.972Z,63.14
2023-05-22T19:51:39.538Z,63.67
2023-05-22T19:56:32.124Z,67.40
2023-05-22T20:01:21.861Z,67.02
2023-05-22T20:06:13.090Z,66.27
2023-05-22T20:11:02.842Z,66.57
2023-05-22T20:15:57.172Z,66.91
2023-05-22T20:20:46.836Z,67.51
2023-05-22T20:25:43.880Z,68.07
2023-05-22T20:30:33.687Z,68.80
2023-05-22T20:35:27.537Z,67.88
2023-05-22T20:40:17.696Z,70.17
2023-05-22T20:45:08.067Z,71.17
2023-05-22T20:49:57.742Z,71.80
2023-05-22T20:54:50.089Z,73.08
2023-05-22T20:59:41.143Z,73.23
2023-05-22T21:04:31.095Z,73.52
2023-05-22T21:09:20.925Z,73.10
2023-05-22T21:14:13.281Z,75.00
2023-05-22T21:19:04.731Z,74.93
2023-05-22T21:23:55.255Z,75.40
2023-05-22T21:28:45.236Z,75.83
2023-05-22T21:33:37.621Z,75.01
2023-05-22T21:38:29.152Z,74.51
2023-05-22T21:43:21.737Z,74.44
2023-05-22T21:48:11.590Z,74.99
2023-05-22T21:53:05.342Z,75.15
2023-05-22T21:57:55.292Z,76.04
2023-05-22T22:02:45.023Z,74.96
2023-05-22T22:07:34.785Z,76.07
2023-05-22T22:12:27.208Z,75.45
2023-05-22T22:17:16.957Z,74.95
2023-05-22T22:22:06.611Z,75.64
2023-05-22T22:26:56.890Z,76.15
2023-05-22T22:31:49.414Z,75.41
2023-05-22T22:36:39.115Z,75.96
2023-05-22T22:41:28.813Z,76.71
2023-05-22T22:46:18.499Z,76.29
2023-05-22T22:51:10.848Z,75.59
2023-05-22T22:56:00.542Z,75.72
2023-05-22T23:00:50.382Z,76.08
2023-05-22T23:05:40.242Z,75.84
2023-05-22T23:10:33.094Z,77.48
2023-05-22T23:15:23.881Z,77.54
2023-05-22T23:20:13.975Z,77.14
2023-05-22T23:25:03.840Z,76.50
2023-05-22T23:29:56.478Z,77.23
2023-05-22T23:34:46.146Z,76.04
2023-05-22T23:39:36.954Z,77.02
2023-05-22T23:44:26.675Z,76.90
2023-05-22T23:49:19.291Z,76.76
2023-05-22T23:54:09.082Z,77.34
2023-05-22T23:59:01.868Z,77.93
